createdAt,value
2018-01-18T00:01:53.193Z,99.20
2018-01-18T00:04:20.720Z,99.20
2018-01-18T00:06:48.985Z,99.80
2018-01-18T00:09:16.527Z,99.90
2018-01-18T00:11:44.032Z,99.90
2018-01-18T00:14:11.548Z,99.70
2018-01-18T00:19:13.902Z,99.70
2018-01-18T00:21:42.186Z,99.90
2018-01-18T00:24:09.712Z,99.90
2018-01-18T00:26:37.229Z,99.90
2018-01-18T00:29:04.763Z,99.90
2018-01-18T00:31:33.049Z,99.90
2018-01-18T00:34:00.583Z,99.90
2018-01-18T00:36:28.085Z,99.90
2018-01-18T00:38:55.617Z,99.90
2018-01-18T00:41:23.134Z,99.90
2018-01-18T00:43:50.670Z,99.90
2018-01-18T00:46:18.181Z,99.90
2018-01-18T00:48:46.476Z,99.90
2018-01-18T00:51:14.748Z,99.90
2018-01-18T00:53:42.282Z,99.90
2018-01-18T00:56:09.798Z,99.90
2018-01-18T00:58:37.308Z,99.90
2018-01-18T01:01:04.841Z,99.90
2018-01-18T01:03:32.362Z,99.90
2018-01-18T01:05:59.894Z,99.90
2018-01-18T01:08:28.171Z,99.90
2018-01-18T01:10:55.705Z,99.90
2018-01-18T01:13:23.985Z,99.90
2018-01-18T01:15:52.287Z,99.90
2018-01-18T01:18:20.556Z,99.90
2018-01-18T01:20:48.086Z,99.90
2018-01-18T01:23:16.365Z,99.70
2018-01-18T01:25:43.899Z,99.70
2018-01-18T01:28:11.411Z,99.90
2018-01-18T01:30:38.946Z,99.60
2018-01-18T01:33:07.220Z,98.70
2018-01-18T01:35:34.739Z,98.70
2018-01-18T01:38:02.243Z,98.50
2018-01-18T01:40:29.798Z,98.70
2018-01-18T01:42:58.073Z,98.70
2018-01-18T01:45:25.605Z,98.70
2018-01-18T01:47:53.118Z,97.80
2018-01-18T01:50:20.645Z,98.50
2018-01-18T01:52:48.920Z,97.60
2018-01-18T01:55:16.457Z,97.50
2018-01-18T01:57:43.974Z,97.20
2018-01-18T02:00:11.500Z,97.50
2018-01-18T02:02:39.014Z,96.30
2018-01-18T02:05:06.542Z,95.70
2018-01-18T02:07:34.048Z,95.10
2018-01-18T02:10:02.402Z,94.60
2018-01-18T02:12:29.882Z,94.60
2018-01-18T02:14:57.392Z,94.10
2018-01-18T02:17:24.921Z,94.10
2018-01-18T02:19:52.802Z,94.10
2018-01-18T02:22:21.092Z,94.10
2018-01-18T02:24:49.362Z,94.10
2018-01-18T02:27:16.888Z,94.10
2018-01-18T02:29:45.169Z,94.00
2018-01-18T02:32:12.693Z,94.00
2018-01-18T02:34:40.200Z,93.90
2018-01-18T02:37:07.725Z,93.10
2018-01-18T02:39:36.006Z,93.20
2018-01-18T02:42:03.532Z,93.20
2018-01-18T02:44:31.035Z,93.10
2018-01-18T02:46:58.567Z,93.40
2018-01-18T02:49:26.070Z,93.50
2018-01-18T02:51:54.372Z,93.20
2018-01-18T02:54:22.647Z,92.70
2018-01-18T02:56:50.177Z,92.70
2018-01-18T02:59:17.688Z,92.40
2018-01-18T03:01:45.213Z,92.40
2018-01-18T03:04:12.721Z,92.30
2018-01-18T03:06:40.247Z,92.20
2018-01-18T03:09:07.764Z,92.50
2018-01-18T03:11:35.297Z,91.80
2018-01-18T03:14:02.803Z,92.10
2018-01-18T03:16:30.332Z,91.40
2018-01-18T03:18:58.611Z,92.30
2018-01-18T03:21:26.142Z,92.30
2018-01-18T03:23:53.661Z,92.00
2018-01-18T03:26:21.356Z,92.00
2018-01-18T03:28:48.864Z,91.90
2018-01-18T03:31:16.384Z,92.00
2018-01-18T03:33:43.912Z,92.80
2018-01-18T03:36:11.429Z,92.70
2018-01-18T03:38:39.724Z,92.70
2018-01-18T03:41:07.238Z,92.70
2018-01-18T03:43:34.768Z,92.90
2018-01-18T03:46:02.287Z,93.10
2018-01-18T03:48:30.577Z,93.40
2018-01-18T03:50:58.088Z,93.40
2018-01-18T03:53:25.615Z,93.10
2018-01-18T03:55:53.121Z,93.60
2018-01-18T03:58:20.652Z,93.70
2018-01-18T04:00:48.156Z,93.50
2018-01-18T04:03:15.684Z,93.50
2018-01-18T04:05:43.960Z,94.20
2018-01-18T04:08:11.490Z,94.10
2018-01-18T04:10:39.002Z,94.10
2018-01-18T04:13:06.532Z,94.10
2018-01-18T04:15:34.048Z,94.60
2018-01-18T04:18:01.575Z,94.20
2018-01-18T04:20:29.090Z,94.40
2018-01-18T04:22:56.611Z,94.40
2018-01-18T04:25:24.389Z,94.60
2018-01-18T04:27:52.681Z,94.70
2018-01-18T04:30:20.949Z,94.80
2018-01-18T04:32:48.478Z,94.80
2018-01-18T04:35:15.998Z,95.00
2018-01-18T04:37:43.536Z,94.60
2018-01-18T04:40:11.858Z,94.40
2018-01-18T04:42:39.623Z,94.40
2018-01-18T04:45:07.905Z,94.20
2018-01-18T04:47:35.421Z,94.20
2018-01-18T04:50:03.722Z,94.70
2018-01-18T04:52:31.244Z,94.70
2018-01-18T04:54:58.765Z,94.70
2018-01-18T04:57:26.274Z,94.70
2018-01-18T04:59:54.581Z,95.20
2018-01-18T05:02:22.849Z,95.20
2018-01-18T05:04:50.385Z,95.10
2018-01-18T05:07:17.913Z,95.00
2018-01-18T05:09:45.444Z,95.10
2018-01-18T05:12:12.961Z,94.90
2018-01-18T05:14:40.498Z,94.80
2018-01-18T05:17:08.779Z,94.80
2018-01-18T05:19:36.304Z,94.80
2018-01-18T05:22:03.822Z,94.90
2018-01-18T05:24:31.350Z,94.70
2018-01-18T05:26:59.637Z,94.80
2018-01-18T05:29:27.168Z,94.80
2018-01-18T05:31:54.680Z,95.00
2018-01-18T05:34:22.202Z,94.70
2018-01-18T05:36:49.720Z,94.70
2018-01-18T05:39:17.260Z,94.60
2018-01-18T05:41:44.764Z,94.60
2018-01-18T05:44:13.056Z,94.30
2018-01-18T05:46:40.598Z,94.30
2018-01-18T05:49:08.124Z,94.60
2018-01-18T05:51:36.397Z,94.40
2018-01-18T05:54:03.930Z,94.20
2018-01-18T05:56:32.213Z,94.20
2018-01-18T05:58:59.720Z,94.20
2018-01-18T06:01:28.013Z,94.20
2018-01-18T06:03:56.285Z,94.20
2018-01-18T06:06:23.818Z,94.20
2018-01-18T06:08:51.331Z,94.30
2018-01-18T06:11:18.861Z,94.40
2018-01-18T06:13:46.367Z,94.30
2018-01-18T06:16:13.904Z,94.10
2018-01-18T06:18:41.412Z,93.60
2018-01-18T06:21:09.705Z,93.60
2018-01-18T06:23:37.212Z,93.30
2018-01-18T06:26:05.620Z,93.10
2018-01-18T06:28:35.969Z,93.40
2018-01-18T06:31:04.257Z,93.10
2018-01-18T06:33:32.536Z,93.10
2018-01-18T06:36:00.160Z,93.10
2018-01-18T06:38:28.433Z,92.60
2018-01-18T06:40:55.958Z,92.60
2018-01-18T06:43:23.469Z,92.70
2018-01-18T06:45:51.001Z,92.90
2018-01-18T06:48:19.276Z,93.10
2018-01-18T06:50:46.800Z,93.00
2018-01-18T06:53:14.317Z,92.80
2018-01-18T06:55:41.855Z,92.90
2018-01-18T06:58:10.127Z,92.70
2018-01-18T07:00:37.657Z,92.70
2018-01-18T07:03:05.940Z,92.80
2018-01-18T07:05:33.465Z,92.70
2018-01-18T07:08:00.976Z,92.80
2018-01-18T07:10:28.518Z,93.00
2018-01-18T07:12:56.039Z,92.70
2018-01-18T07:15:23.578Z,92.50
2018-01-18T07:17:51.859Z,92.50
2018-01-18T07:20:19.367Z,92.50
2018-01-18T07:22:46.922Z,92.40
2018-01-18T07:25:14.428Z,92.40
2018-01-18T07:27:42.735Z,92.30
2018-01-18T07:30:11.010Z,92.30
2018-01-18T07:32:38.532Z,92.20
2018-01-18T07:35:06.858Z,92.20
2018-01-18T07:37:34.394Z,92.10
2018-01-18T07:40:01.906Z,92.00
2018-01-18T07:42:29.437Z,92.00
2018-01-18T07:44:56.950Z,92.10
2018-01-18T07:47:25.248Z,92.50
2018-01-18T07:49:52.762Z,92.10
2018-01-18T07:52:20.291Z,92.30
2018-01-18T07:54:47.791Z,92.20
2018-01-18T07:57:21.108Z,92.10
2018-01-18T07:59:48.620Z,92.30
2018-01-18T08:02:16.148Z,92.20
2018-01-18T08:04:43.689Z,91.90
2018-01-18T08:07:11.225Z,91.90
2018-01-18T08:09:38.733Z,92.00
2018-01-18T08:12:06.261Z,92.00
2018-01-18T08:14:34.541Z,92.00
2018-01-18T08:17:02.072Z,92.00
2018-01-18T08:19:29.643Z,91.90
2018-01-18T08:21:57.942Z,91.80
2018-01-18T08:24:26.223Z,91.70
2018-01-18T08:26:53.759Z,91.70
2018-01-18T08:29:21.273Z,91.90
2018-01-18T08:31:49.454Z,92.10
2018-01-18T08:34:16.974Z,92.00
2018-01-18T08:36:44.481Z,92.30
2018-01-18T08:39:12.781Z,92.20
2018-01-18T08:41:41.056Z,91.90
2018-01-18T08:44:08.579Z,91.90
2018-01-18T08:46:36.845Z,92.40
2018-01-18T08:49:04.380Z,92.40
2018-01-18T08:51:31.892Z,92.30
2018-01-18T08:53:59.420Z,92.00
2018-01-18T08:56:27.709Z,92.10
2018-01-18T08:58:55.233Z,92.10
2018-01-18T09:01:22.736Z,91.70
2018-01-18T09:03:50.286Z,91.70
2018-01-18T09:06:18.572Z,91.40
2018-01-18T09:08:46.869Z,91.40
2018-01-18T09:11:14.396Z,91.30
2018-01-18T09:13:41.924Z,91.50
2018-01-18T09:16:09.441Z,91.10
2018-01-18T09:18:36.973Z,91.10
2018-01-18T09:21:04.480Z,91.20
2018-01-18T09:23:32.032Z,90.90
2018-01-18T09:25:59.548Z,90.80
2018-01-18T09:28:27.077Z,90.80
2018-01-18T09:30:55.343Z,90.60
2018-01-18T09:33:22.877Z,90.60
2018-01-18T09:35:50.391Z,90.70
2018-01-18T09:38:17.916Z,90.30
2018-01-18T09:40:45.425Z,90.40
2018-01-18T09:43:12.944Z,90.30
2018-01-18T09:45:40.466Z,90.30
2018-01-18T09:48:08.005Z,90.40
2018-01-18T09:50:35.540Z,90.00
2018-01-18T09:53:03.045Z,90.40
2018-01-18T09:55:30.586Z,89.60
2018-01-18T09:57:58.096Z,89.50
2018-01-18T10:00:25.624Z,89.70
2018-01-18T10:02:53.144Z,88.90
2018-01-18T10:05:20.696Z,88.30
2018-01-18T10:07:48.214Z,87.70
2018-01-18T10:10:15.739Z,87.90
2018-01-18T10:12:43.279Z,87.00
2018-01-18T10:15:10.805Z,86.60
2018-01-18T10:17:38.312Z,86.20
2018-01-18T10:20:06.622Z,86.30
2018-01-18T10:22:34.893Z,85.80
2018-01-18T10:25:02.526Z,85.80
2018-01-18T10:27:30.046Z,85.90
2018-01-18T10:29:57.577Z,87.10
2018-01-18T10:32:25.091Z,87.60
2018-01-18T10:34:52.634Z,87.90
2018-01-18T10:37:20.148Z,87.90
2018-01-18T10:39:48.455Z,87.00
2018-01-18T10:42:15.974Z,87.00
2018-01-18T10:44:43.513Z,88.00
2018-01-18T10:47:11.793Z,88.00
2018-01-18T10:49:39.316Z,88.00
2018-01-18T10:52:07.591Z,88.00
2018-01-18T10:54:35.123Z,87.90
2018-01-18T10:57:05.515Z,86.80
2018-01-18T10:59:33.070Z,86.90
2018-01-18T11:02:01.366Z,87.90
2018-01-18T11:04:28.917Z,87.80
2018-01-18T11:06:57.193Z,88.10
2018-01-18T11:09:24.717Z,88.00
2018-01-18T11:11:52.227Z,88.10
2018-01-18T11:14:19.749Z,87.20
2018-01-18T11:16:49.544Z,87.20
2018-01-18T11:19:17.052Z,87.30
2018-01-18T11:21:44.579Z,87.00
2018-01-18T11:24:12.865Z,86.50
2018-01-18T11:26:41.163Z,86.40
2018-01-18T11:29:08.682Z,86.50
2018-01-18T11:31:37.047Z,86.00
2018-01-18T11:34:04.560Z,86.40
2018-01-18T11:36:32.088Z,85.90
2018-01-18T11:38:59.622Z,85.90
2018-01-18T11:41:27.152Z,86.30
2018-01-18T11:43:54.665Z,85.40
2018-01-18T11:46:22.203Z,85.40
2018-01-18T11:48:49.718Z,85.00
2018-01-18T11:51:17.268Z,84.80
2018-01-18T11:53:44.803Z,85.00
2018-01-18T11:56:12.350Z,84.50
2018-01-18T11:58:39.874Z,84.50
2018-01-18T12:01:07.410Z,84.40
2018-01-18T12:03:35.702Z,84.00
2018-01-18T12:06:03.995Z,83.80
2018-01-18T12:08:31.579Z,83.70
2018-01-18T12:10:59.894Z,84.40
2018-01-18T12:13:28.162Z,84.40
2018-01-18T12:15:55.695Z,84.40
2018-01-18T12:18:23.985Z,84.50
2018-01-18T12:20:51.517Z,84.40
2018-01-18T12:23:19.032Z,85.20
2018-01-18T12:25:46.619Z,84.80
2018-01-18T12:28:14.101Z,85.00
2018-01-18T12:30:41.613Z,85.00
2018-01-18T12:33:09.139Z,85.40
2018-01-18T12:35:37.412Z,85.50
2018-01-18T12:38:07.516Z,85.10
2018-01-18T12:40:35.908Z,85.10
2018-01-18T12:43:03.438Z,85.10
2018-01-18T12:45:30.968Z,84.80
2018-01-18T12:47:59.260Z,85.20
2018-01-18T12:50:27.544Z,84.80
2018-01-18T12:52:55.071Z,84.80
2018-01-18T12:55:22.572Z,84.40
2018-01-18T12:57:50.105Z,84.60
2018-01-18T13:00:18.380Z,85.30
2018-01-18T13:02:45.933Z,84.50
2018-01-18T13:05:13.498Z,84.80
2018-01-18T13:07:41.015Z,85.30
2018-01-18T13:10:08.664Z,85.20
2018-01-18T13:12:36.207Z,85.30
2018-01-18T13:15:03.744Z,85.20
2018-01-18T13:17:32.479Z,85.40
2018-01-18T13:19:59.992Z,85.40
2018-01-18T13:22:27.554Z,85.50
2018-01-18T13:24:55.088Z,85.30
2018-01-18T13:27:22.635Z,84.80
2018-01-18T13:29:50.154Z,85.10
2018-01-18T13:32:17.724Z,85.30
2018-01-18T13:34:45.386Z,84.60
2018-01-18T13:37:13.152Z,84.80
2018-01-18T13:39:40.693Z,85.10
2018-01-18T13:42:08.987Z,86.00
2018-01-18T13:44:37.136Z,86.00
2018-01-18T13:47:04.773Z,86.10
2018-01-18T13:49:32.637Z,87.20
2018-01-18T13:52:00.268Z,86.40
2018-01-18T13:54:27.789Z,86.30
2018-01-18T13:56:55.311Z,87.10
2018-01-18T13:59:22.944Z,88.20
2018-01-18T14:01:51.615Z,89.20
2018-01-18T14:04:19.289Z,88.90
2018-01-18T14:06:47.047Z,89.70
2018-01-18T14:09:14.952Z,90.70
2018-01-18T14:11:42.624Z,91.00
2018-01-18T14:14:10.170Z,91.30
2018-01-18T14:16:38.339Z,93.00
2018-01-18T14:19:06.641Z,96.80
2018-01-18T14:21:34.351Z,96.80
2018-01-18T14:24:02.033Z,97.00
2018-01-18T14:26:29.554Z,96.20
2018-01-18T14:28:57.988Z,98.90
2018-01-18T14:31:26.421Z,98.20
2018-01-18T14:33:54.272Z,98.20
2018-01-18T14:36:21.838Z,98.00
2018-01-18T14:38:50.242Z,99.90
2018-01-18T14:41:18.712Z,99.90
2018-01-18T14:43:46.350Z,99.90
2018-01-18T14:46:13.914Z,99.90
2018-01-18T14:48:44.788Z,99.90
2018-01-18T14:51:12.898Z,99.90
2018-01-18T14:53:40.545Z,99.90
2018-01-18T14:56:08.143Z,99.90
2018-01-18T14:58:36.672Z,99.90
2018-01-18T15:01:05.492Z,99.90
2018-01-18T15:03:33.070Z,99.90
2018-01-18T15:06:01.388Z,99.90
2018-01-18T15:08:28.915Z,99.90
2018-01-18T15:10:56.451Z,99.90
2018-01-18T15:13:24.753Z,99.90
2018-01-18T15:15:53.063Z,99.90
2018-01-18T15:18:21.459Z,99.90
2018-01-18T15:20:49.770Z,99.90
2018-01-18T15:23:18.085Z,99.90
2018-01-18T15:25:45.644Z,99.90
2018-01-18T15:28:13.180Z,99.90
2018-01-18T15:30:40.756Z,99.90
2018-01-18T15:33:08.311Z,99.90
2018-01-18T15:35:36.913Z,99.90
2018-01-18T15:38:05.572Z,99.90
2018-01-18T15:40:33.145Z,99.90
2018-01-18T15:43:00.679Z,99.90
2018-01-18T15:45:28.263Z,99.90
2018-01-18T15:47:55.801Z,99.90
2018-01-18T15:50:23.342Z,99.90
2018-01-18T15:52:51.638Z,99.90
2018-01-18T15:55:19.174Z,99.90
2018-01-18T15:57:46.698Z,99.90
2018-01-18T16:00:14.240Z,99.90
2018-01-18T16:02:41.761Z,99.90
2018-01-18T16:05:09.314Z,99.90
2018-01-18T16:07:36.842Z,99.90
2018-01-18T16:10:04.387Z,99.90
2018-01-18T16:12:31.909Z,99.90
2018-01-18T16:14:59.446Z,99.90
2018-01-18T16:17:26.990Z,99.90
2018-01-18T16:19:55.284Z,99.90
2018-01-18T16:22:22.825Z,99.90
2018-01-18T16:24:50.348Z,99.90
2018-01-18T16:27:17.895Z,99.90
2018-01-18T16:29:45.432Z,99.90
2018-01-18T16:32:12.975Z,99.90
2018-01-18T16:34:40.502Z,99.90
2018-01-18T16:37:08.061Z,99.90
2018-01-18T16:39:35.587Z,99.90
2018-01-18T16:42:03.908Z,99.90
2018-01-18T16:44:31.427Z,99.90
2018-01-18T16:46:59.928Z,99.90
2018-01-18T16:49:27.451Z,99.90
2018-01-18T16:51:55.715Z,99.90
2018-01-18T16:54:23.247Z,99.90
2018-01-18T16:56:50.791Z,99.90
2018-01-18T16:59:18.362Z,99.90
2018-01-18T17:01:45.903Z,99.90
2018-01-18T17:04:13.434Z,99.90
2018-01-18T17:06:40.987Z,99.90
2018-01-18T17:09:08.514Z,99.90
2018-01-18T17:11:36.069Z,99.90
2018-01-18T17:14:04.388Z,99.90
2018-01-18T17:16:32.697Z,99.90
2018-01-18T17:19:00.226Z,99.90
2018-01-18T17:21:27.785Z,99.90
2018-01-18T17:23:55.320Z,98.90
2018-01-18T17:26:22.842Z,99.90
2018-01-18T17:28:50.380Z,99.70
2018-01-18T17:31:17.914Z,98.10
2018-01-18T17:33:45.458Z,99.90
2018-01-18T17:36:12.982Z,99.60
2018-01-18T17:38:40.554Z,99.20
2018-01-18T17:41:08.842Z,98.00
2018-01-18T17:43:36.399Z,98.00
2018-01-18T17:46:03.929Z,97.00
2018-01-18T17:48:31.493Z,98.00
2018-01-18T17:50:59.012Z,97.70
2018-01-18T17:53:27.431Z,96.60
2018-01-18T17:55:54.945Z,96.60
2018-01-18T17:58:22.500Z,95.90
2018-01-18T18:00:50.032Z,97.20
2018-01-18T18:03:17.571Z,96.30
2018-01-18T18:05:45.855Z,94.60
2018-01-18T18:08:13.471Z,94.60
2018-01-18T18:10:41.753Z,94.70
2018-01-18T18:13:09.303Z,94.70
2018-01-18T18:15:36.837Z,94.40
2018-01-18T18:18:05.154Z,94.50
2018-01-18T18:20:33.439Z,94.10
2018-01-18T18:23:01.765Z,92.80
2018-01-18T18:25:30.055Z,92.80
2018-01-18T18:27:57.610Z,92.80
2018-01-18T18:30:25.153Z,93.00
2018-01-18T18:32:52.693Z,92.70
2018-01-18T18:35:20.229Z,92.30
2018-01-18T18:37:47.795Z,91.80
2018-01-18T18:40:16.078Z,91.20
2018-01-18T18:42:43.598Z,91.20
2018-01-18T18:45:11.137Z,91.80
2018-01-18T18:47:38.660Z,92.30
2018-01-18T18:50:06.971Z,92.10
2018-01-18T18:52:34.491Z,92.10
2018-01-18T18:55:02.049Z,92.00
2018-01-18T18:57:29.585Z,92.10
2018-01-18T18:59:57.913Z,92.90
2018-01-18T19:02:26.930Z,92.70
2018-01-18T19:04:54.512Z,92.60
2018-01-18T19:07:22.078Z,92.40
2018-01-18T19:09:49.702Z,92.30
2018-01-18T19:12:18.057Z,91.90
2018-01-18T19:14:46.417Z,91.80
2018-01-18T19:17:14.977Z,91.80
2018-01-18T19:19:42.519Z,91.80
2018-01-18T19:22:10.868Z,92.00
2018-01-18T19:24:38.414Z,92.00
2018-01-18T19:27:05.987Z,92.10
2018-01-18T19:29:33.535Z,92.10
2018-01-18T19:32:01.077Z,92.30
2018-01-18T19:34:28.661Z,92.80
2018-01-18T19:36:56.237Z,92.70
2018-01-18T19:39:23.838Z,93.00
2018-01-18T19:41:51.416Z,93.00
2018-01-18T19:44:19.010Z,93.10
2018-01-18T19:46:46.583Z,93.20
2018-01-18T19:49:14.123Z,93.40
2018-01-18T19:51:41.644Z,93.70
2018-01-18T19:54:09.197Z,93.70
2018-01-18T19:56:36.726Z,93.60
2018-01-18T19:59:04.282Z,93.80
2018-01-18T20:01:31.870Z,93.90
2018-01-18T20:03:59.465Z,94.10
2018-01-18T20:06:27.038Z,94.30
2018-01-18T20:08:54.605Z,94.00
2018-01-18T20:11:22.147Z,94.00
2018-01-18T20:13:49.751Z,94.40
2018-01-18T20:16:17.346Z,94.70
2018-01-18T20:18:44.868Z,95.00
2018-01-18T20:21:12.411Z,95.00
2018-01-18T20:23:39.939Z,94.80
2018-01-18T20:26:08.257Z,95.00
2018-01-18T20:28:35.838Z,94.90
2018-01-18T20:31:04.207Z,94.80
2018-01-18T20:33:31.786Z,94.80
2018-01-18T20:35:59.388Z,94.60
2018-01-18T20:38:26.914Z,93.80
2018-01-18T20:40:54.455Z,93.90
2018-01-18T20:43:22.034Z,93.70
2018-01-18T20:45:49.652Z,93.40
2018-01-18T20:48:17.235Z,93.30
2018-01-18T20:50:44.833Z,93.50
2018-01-18T20:53:13.123Z,93.90
2018-01-18T20:55:40.729Z,93.90
2018-01-18T20:58:09.084Z,93.90
2018-01-18T21:00:36.626Z,93.90
2018-01-18T21:03:04.925Z,93.80
2018-01-18T21:05:33.276Z,94.20
2018-01-18T21:08:00.794Z,94.20
2018-01-18T21:10:28.342Z,94.30
2018-01-18T21:12:55.866Z,94.30
2018-01-18T21:15:23.486Z,94.10
2018-01-18T21:17:51.829Z,94.90
2018-01-18T21:20:19.370Z,94.60
2018-01-18T21:22:47.683Z,94.90
2018-01-18T21:25:16.021Z,94.90
2018-01-18T21:27:43.578Z,94.90
2018-01-18T21:30:11.164Z,94.90
2018-01-18T21:32:38.724Z,95.30
2018-01-18T21:35:07.057Z,95.90
2018-01-18T21:37:34.671Z,95.90
2018-01-18T21:40:02.247Z,96.20
2018-01-18T21:42:29.857Z,96.00
2018-01-18T21:44:57.396Z,96.30
2018-01-18T21:47:24.988Z,96.40
2018-01-18T21:49:52.514Z,97.00
2018-01-18T21:52:20.063Z,96.90
2018-01-18T21:54:48.413Z,97.00
2018-01-18T21:57:16.730Z,97.20
2018-01-18T21:59:44.254Z,97.20
2018-01-18T22:02:11.797Z,97.80
2018-01-18T22:04:40.095Z,97.40
2018-01-18T22:07:07.648Z,97.40
2018-01-18T22:09:35.185Z,97.60
2018-01-18T22:12:02.737Z,97.60
2018-01-18T22:14:30.261Z,97.70
2018-01-18T22:16:57.810Z,97.70
2018-01-18T22:19:25.351Z,96.70
2018-01-18T22:21:52.896Z,96.50
2018-01-18T22:24:22.040Z,96.60
2018-01-18T22:26:49.634Z,96.60
2018-01-18T22:29:17.195Z,96.60
2018-01-18T22:31:45.563Z,96.70
2018-01-18T22:34:13.095Z,96.70
2018-01-18T22:36:41.382Z,96.30
2018-01-18T22:39:08.978Z,96.30
2018-01-18T22:41:36.508Z,96.20
2018-01-18T22:44:04.055Z,96.60
2018-01-18T22:46:31.578Z,97.10
2018-01-18T22:48:59.140Z,97.00
2018-01-18T22:51:27.445Z,97.30
2018-01-18T22:53:54.990Z,97.30
2018-01-18T22:56:22.521Z,97.40
2018-01-18T22:58:50.058Z,97.50
2018-01-18T23:01:17.583Z,97.50
2018-01-18T23:03:45.131Z,96.80
2018-01-18T23:06:12.650Z,96.60
2018-01-18T23:08:40.199Z,96.30
2018-01-18T23:11:07.736Z,96.50
2018-01-18T23:13:35.278Z,96.40
2018-01-18T23:16:02.804Z,96.50
2018-01-18T23:18:30.350Z,96.30
2018-01-18T23:20:57.869Z,96.50
2018-01-18T23:23:25.792Z,96.10
2018-01-18T23:25:53.311Z,96.20
2018-01-18T23:28:20.882Z,96.30
2018-01-18T23:30:49.174Z,96.50
2018-01-18T23:33:17.483Z,97.40
2018-01-18T23:35:45.770Z,97.20
2018-01-18T23:38:13.316Z,97.20
2018-01-18T23:40:40.840Z,97.30
2018-01-18T23:43:08.493Z,97.20
2018-01-18T23:45:36.018Z,97.50
2018-01-18T23:48:04.327Z,97.30
2018-01-18T23:50:32.635Z,97.30
2018-01-18T23:53:00.945Z,97.40
2018-01-18T23:55:28.532Z,97.40
2018-01-18T23:57:56.054Z,97.40
